Time;durP1;ratioP1;P1;durP2;ratioP2;P2;SDS_P1;SDS_P2;PMS_P1;PMS_P2;Temp;Humidity;BMP_temperature;BMP_pressure;BME280_temperature;BME280_humidity;BME280_pressure;Samples;Min_cycle;Max_cycle;Signal;HPM_P1;HPM_P2
2022/10/26 00:00:52;;;;;;;27.02;13.63;;;10.20;99.90;;;;;;5099100;28;20032;-60
2022/10/26 00:03:18;;;;;;;27.40;13.63;;;10.10;99.90;;;;;;5081212;28;20036;-60
2022/10/26 00:05:43;;;;;;;23.85;13.68;;;10.10;99.90;;;;;;5107449;28;20039;-60
2022/10/26 00:08:10;;;;;;;23.52;13.63;;;;;;;;;;5091330;28;20032;-60
2022/10/26 00:10:39;;;;;;;27.98;13.63;;;;;;;;;;5090237;28;20056;-60
2022/10/26 00:13:08;;;;;;;29.65;14.30;;;;;;;;;;5089999;28;20035;-60
2022/10/26 00:15:33;;;;;;;23.73;13.73;;;10.00;99.90;;;;;;5098387;28;20047;-61
2022/10/26 00:17:59;;;;;;;23.75;13.43;;;10.00;99.90;;;;;;5089550;28;20036;-59
2022/10/26 00:20:24;;;;;;;29.58;14.88;;;9.90;99.90;;;;;;5088823;28;20070;-60
2022/10/26 00:22:54;;;;;;;33.72;15.63;;;;;;;;;;5089281;28;20038;-60
2022/10/26 00:25:19;;;;;;;31.05;15.73;;;9.80;99.90;;;;;;5089622;28;20043;-60
2022/10/26 00:27:45;;;;;;;19.77;12.68;;;;;;;;;;5054916;28;20032;-60
2022/10/26 00:30:11;;;;;;;25.70;14.07;;;;;;;;;;5090252;28;20528;-60
2022/10/26 00:32:37;;;;;;;30.10;14.10;;;;;;;;;;5090019;28;20327;-60
2022/10/26 00:35:03;;;;;;;26.67;14.35;;;9.70;99.90;;;;;;5089040;28;20408;-60
2022/10/26 00:37:29;;;;;;;32.03;15.00;;;9.80;99.90;;;;;;5102425;28;20032;-60
2022/10/26 00:39:54;;;;;;;26.90;14.43;;;9.80;99.90;;;;;;5089897;28;20441;-60
2022/10/26 00:42:21;;;;;;;25.15;14.55;;;10.10;99.90;;;;;;5089204;28;20027;-60
2022/10/26 00:44:57;;;;;;;28.10;13.80;;;;;;;;;;5074455;28;20517;-59
2022/10/26 00:47:33;;;;;;;29.95;16.02;;;;;;;;;;5094139;28;20044;-59
2022/10/26 00:50:02;;;;;;;26.83;14.20;;;;;;;;;;5090000;28;20040;-60
2022/10/26 00:52:29;;;;;;;25.75;13.40;;;;;;;;;;5089574;28;20051;-60
2022/10/26 00:54:55;;;;;;;24.40;14.35;;;;;;;;;;5072073;28;20063;-60
2022/10/26 00:57:21;;;;;;;26.05;14.40;;;;;;;;;;5070414;28;20060;-61
2022/10/26 00:59:53;;;;;;;32.35;15.63;;;;;;;;;;5088953;28;20048;-61
2022/10/26 01:02:19;;;;;;;23.23;13.55;;;9.30;99.90;;;;;;5089713;28;20163;-61
2022/10/26 01:04:48;;;;;;;28.40;15.10;;;;;;;;;;5089395;28;20078;-61
2022/10/26 01:07:15;;;;;;;24.67;14.48;;;;;;;;;;5071039;28;20068;-60
2022/10/26 01:09:41;;;;;;;28.50;15.65;;;9.20;99.90;;;;;;5089480;28;20035;-60
2022/10/26 01:12:06;;;;;;;25.55;13.55;;;9.20;99.90;;;;;;5095566;28;20044;-61
2022/10/26 01:14:33;;;;;;;23.42;13.07;;;;;;;;;;5094591;28;20028;-61
2022/10/26 01:17:33;;;;;;;26.23;13.43;;;9.00;99.90;;;;;;5088972;28;20032;-61
2022/10/26 01:19:59;;;;;;;28.67;13.45;;;;;;;;;;5095101;28;20035;-61
2022/10/26 01:22:29;;;;;;;24.45;13.38;;;;;;;;;;5089809;28;20047;-61
2022/10/26 01:25:13;;;;;;;27.17;13.38;;;8.90;99.90;;;;;;5081468;28;20398;-60
2022/10/26 01:27:43;;;;;;;27.83;15.32;;;9.00;99.90;;;;;;5087257;28;20513;-60
2022/10/26 01:30:29;;;;;;;26.05;14.02;;;8.40;99.90;;;;;;5089278;28;20038;-60
2022/10/26 01:33:07;;;;;;;24.17;13.70;;;;;;;;;;5081560;28;20048;-60
2022/10/26 01:35:46;;;;;;;24.52;13.98;;;;;;;;;;5100240;28;20103;-60
2022/10/26 01:38:15;;;;;;;25.95;13.35;;;;;;;;;;5074627;28;20045;-60
2022/10/26 01:40:56;;;;;;;24.10;13.45;;;;;;;;;;5092916;28;20040;-60
2022/10/26 01:43:23;;;;;;;25.88;13.55;;;;;;;;;;5093237;28;20055;-60
2022/10/26 01:45:50;;;;;;;32.65;14.95;;;8.60;99.90;;;;;;5092587;28;20062;-59
2022/10/26 01:48:17;;;;;;;24.48;13.80;;;;;;;;;;5086396;28;20043;-60
2022/10/26 01:50:45;;;;;;;28.95;14.38;;;;;;;;;;5096278;28;20404;-60
2022/10/26 01:53:13;;;;;;;27.90;14.80;;;8.90;99.90;;;;;;5086864;28;20472;-60
2022/10/26 01:56:05;;;;;;;30.67;14.57;;;;;;;;;;5092614;28;20036;-60
2022/10/26 01:58:38;;;;;;;29.80;14.95;;;8.60;99.90;;;;;;5089715;28;20131;-60
2022/10/26 02:01:28;;;;;;;27.23;14.95;;;8.10;99.90;;;;;;5092224;28;20039;-59
2022/10/26 02:04:19;;;;;;;29.00;14.75;;;8.90;99.90;;;;;;5101398;28;20040;-60
2022/10/26 02:06:56;;;;;;;24.30;14.25;;;;;;;;;;5101480;28;20044;-60
2022/10/26 02:09:40;;;;;;;26.27;14.50;;;9.00;99.90;;;;;;5088202;28;20042;-60
2022/10/26 02:12:12;;;;;;;29.45;15.02;;;;;;;;;;5093322;28;20046;-60
2022/10/26 02:14:47;;;;;;;31.60;14.30;;;;;;;;;;5095455;28;20039;-60
2022/10/26 02:17:22;;;;;;;32.63;16.33;;;;;;;;;;5093347;28;20194;-60
2022/10/26 02:20:05;;;;;;;30.27;15.63;;;8.80;99.90;;;;;;5095037;28;20066;-60
2022/10/26 02:22:36;;;;;;;26.75;13.95;;;8.50;99.90;;;;;;5102841;28;20031;-60
2022/10/26 02:25:10;;;;;;;27.25;14.15;;;8.70;99.90;;;;;;5092102;28;20119;-60
2022/10/26 02:27:41;;;;;;;32.55;15.98;;;;;;;;;;5091896;28;20032;-60
2022/10/26 02:30:08;;;;;;;29.90;15.20;;;;;;;;;;5092005;28;20032;-60
2022/10/26 02:32:35;;;;;;;30.73;15.13;;;;;;;;;;5094765;28;20040;-59
2022/10/26 02:35:02;;;;;;;28.85;15.40;;;;;;;;;;5078824;28;20047;-60
2022/10/26 02:37:29;;;;;;;23.20;12.18;;;8.50;99.90;;;;;;5107449;28;20140;-60
2022/10/26 02:39:56;;;;;;;31.25;16.13;;;;;;;;;;5074057;28;20390;-60
2022/10/26 02:42:22;;;;;;;32.22;16.02;;;;;;;;;;5096461;28;20071;-60
2022/10/26 02:44:51;;;;;;;32.35;17.05;;;;;;;;;;5091162;28;20123;-60
2022/10/26 02:47:18;;;;;;;27.00;14.75;;;8.60;99.90;;;;;;5097705;28;20039;-60
2022/10/26 02:49:44;;;;;;;34.22;17.38;;;8.50;99.90;;;;;;5092952;28;20109;-60
2022/10/26 02:52:18;;;;;;;36.22;17.02;;;8.30;99.90;;;;;;5098148;28;20478;-60
2022/10/26 02:54:49;;;;;;;34.85;17.05;;;;;;;;;;5081895;28;20047;-60
2022/10/26 02:57:23;;;;;;;30.20;16.80;;;8.50;99.90;;;;;;5091202;28;20036;-60
2022/10/26 02:59:53;;;;;;;32.65;16.08;;;;;;;;;;5091422;28;20081;-60
2022/10/26 03:02:20;;;;;;;26.83;13.40;;;;;;;;;;5086280;28;20077;-60
2022/10/26 03:04:46;;;;;;;36.42;17.27;;;;;;;;;;5093494;28;20036;-60
2022/10/26 03:07:12;;;;;;;32.03;16.52;;;;;;;;;;5087362;28;20043;-60
2022/10/26 03:09:38;;;;;;;36.13;17.55;;;8.40;99.90;;;;;;5108257;28;20565;-59
2022/10/26 03:12:04;;;;;;;30.92;16.08;;;;;;;;;;5104476;28;20048;-59
2022/10/26 03:14:30;;;;;;;28.50;14.35;;;8.60;99.90;;;;;;5073016;28;20039;-59
2022/10/26 03:16:56;;;;;;;26.08;14.43;;;;;;;;;;5090845;28;20501;-58
2022/10/26 03:19:22;;;;;;;29.70;15.63;;;;;;;;;;5092074;28;20032;-59
2022/10/26 03:21:47;;;;;;;29.02;15.18;;;8.70;99.90;;;;;;5102442;28;20043;-59
2022/10/26 03:24:13;;;;;;;25.15;15.00;;;;;;;;;;5091104;28;20382;-59
2022/10/26 03:26:39;;;;;;;21.98;13.05;;;;;;;;;;5079974;28;20360;-59
2022/10/26 03:29:05;;;;;;;24.55;13.82;;;8.80;99.90;;;;;;5100421;28;20432;-59
2022/10/26 03:31:31;;;;;;;24.52;13.57;;;8.80;99.90;;;;;;5072735;28;20032;-59
2022/10/26 03:33:57;;;;;;;25.33;15.02;;;;;;;;;;5090558;28;20501;-59
2022/10/26 03:36:23;;;;;;;29.50;15.95;;;;;;;;;;5090922;28;20079;-58
2022/10/26 03:38:48;;;;;;;29.15;15.57;;;;;;;;;;5071968;28;20040;-59
2022/10/26 03:41:43;;;;;;;29.65;15.75;;;;;;;;;;5060521;22;20124;-91
2022/10/26 03:47:52;;;;;;;27.23;14.95;;;;;;;;;;4986844;28;20054;-91
2022/10/26 03:50:40;;;;;;;25.70;13.02;;;9.00;99.90;;;;;;5081298;23;20420;-58
2022/10/26 03:53:06;;;;;;;29.02;16.52;;;;;;;;;;5090883;28;20035;-57
2022/10/26 03:55:32;;;;;;;26.00;14.32;;;;;;;;;;5091774;28;20052;-57
2022/10/26 03:57:58;;;;;;;33.58;16.23;;;;;;;;;;5101642;28;20043;-57
2022/10/26 04:00:26;;;;;;;27.58;16.25;;;9.20;99.90;;;;;;5073699;28;20044;-57
2022/10/26 04:02:58;;;;;;;23.55;15.20;;;;;;;;;;5102860;28;20046;-58
2022/10/26 04:05:26;;;;;;;23.85;13.85;;;9.30;99.90;;;;;;5083048;28;20036;-58
2022/10/26 04:07:56;;;;;;;28.50;17.23;;;9.00;99.90;;;;;;5091913;28;20072;-57
2022/10/26 04:10:23;;;;;;;25.92;15.75;;;;;;;;;;5090352;28;20203;-57
2022/10/26 04:12:49;;;;;;;23.48;14.57;;;9.20;99.90;;;;;;5091985;28;20095;-58
2022/10/26 04:15:15;;;;;;;29.23;16.42;;;;;;;;;;5096189;28;20094;-57
2022/10/26 04:17:41;;;;;;;42.25;21.17;;;;;;;;;;5091643;28;20122;-60
2022/10/26 04:20:08;;;;;;;28.40;17.70;;;;;;;;;;5096765;28;20036;-56
2022/10/26 04:22:35;;;;;;;31.48;18.80;;;;;;;;;;5080733;28;20218;-57
2022/10/26 04:25:01;;;;;;;27.83;17.55;;;9.50;99.90;;;;;;5096313;28;20377;-57
2022/10/26 04:27:27;;;;;;;33.50;19.00;;;9.70;99.90;;;;;;5092367;28;20052;-57
2022/10/26 04:29:52;;;;;;;30.60;18.02;;;9.60;99.90;;;;;;5093509;28;20047;-57
2022/10/26 04:32:18;;;;;;;29.38;16.77;;;;;;;;;;5096228;28;20573;-58
2022/10/26 04:34:44;;;;;;;30.95;18.30;;;9.80;99.90;;;;;;5084364;28;20097;-58
2022/10/26 04:37:10;;;;;;;28.15;17.40;;;9.70;99.90;;;;;;5099454;28;20039;-58
2022/10/26 04:39:35;;;;;;;32.60;19.67;;;9.90;99.90;;;;;;5092461;28;20067;-58
2022/10/26 04:42:01;;;;;;;32.65;19.92;;;9.90;99.90;;;;;;5093411;28;20488;-58
2022/10/26 04:44:29;;;;;;;34.75;21.15;;;;;;;;;;5098968;28;20035;-58
2022/10/26 04:46:55;;;;;;;35.97;22.02;;;;;;;;;;5079319;28;20068;-57
2022/10/26 04:49:21;;;;;;;34.65;20.67;;;9.90;99.90;;;;;;5083189;28;20036;-57
2022/10/26 04:51:47;;;;;;;29.10;20.15;;;;;;;;;;5091127;28;20051;-57
2022/10/26 04:54:12;;;;;;;35.13;22.35;;;10.10;99.90;;;;;;5088472;28;20086;-58
2022/10/26 04:56:38;;;;;;;34.88;22.38;;;10.00;99.90;;;;;;5082995;28;20123;-56
2022/10/26 04:59:04;;;;;;;31.10;19.63;;;;;;;;;;5054643;28;20043;-58
2022/10/26 05:01:30;;;;;;;33.35;20.45;;;;;;;;;;5071438;28;20051;-58
2022/10/26 05:03:56;;;;;;;30.52;19.80;;;;;;;;;;5077189;28;20048;-58
2022/10/26 05:06:23;;;;;;;32.95;20.98;;;;;;;;;;5082173;28;20040;-58
2022/10/26 05:08:49;;;;;;;33.60;20.67;;;;;;;;;;5065668;28;20057;-58
2022/10/26 05:11:15;;;;;;;37.22;21.98;;;;;;;;;;5084906;28;20115;-58
2022/10/26 05:13:41;;;;;;;33.35;20.33;;;;;;;;;;5096340;28;20377;-58
2022/10/26 05:16:07;;;;;;;33.80;21.95;;;10.50;99.90;;;;;;5095060;28;20062;-58
2022/10/26 05:18:32;;;;;;;36.08;20.98;;;10.60;99.90;;;;;;5093583;28;20084;-57
2022/10/26 05:20:58;;;;;;;32.45;20.25;;;10.00;99.90;;;;;;5100258;28;20035;-58
2022/10/26 05:23:24;;;;;;;34.72;20.08;;;10.60;99.90;;;;;;5093289;28;20462;-58
2022/10/26 05:25:50;;;;;;;30.70;19.52;;;;;;;;;;5094957;28;20031;-58
2022/10/26 05:28:17;;;;;;;30.42;20.42;;;;;;;;;;5097602;28;20089;-57
2022/10/26 05:30:44;;;;;;;29.48;19.35;;;;;;;;;;5100744;28;20043;-57
2022/10/26 05:33:11;;;;;;;31.20;20.02;;;;;;;;;;5098920;28;20044;-57
2022/10/26 05:35:37;;;;;;;29.10;19.27;;;10.70;99.90;;;;;;5101505;28;20044;-57
2022/10/26 05:38:07;;;;;;;28.23;19.77;;;10.90;99.90;;;;;;5100885;28;20035;-57
2022/10/26 05:40:33;;;;;;;30.52;19.58;;;;;;;;;;5106927;28;20126;-57
2022/10/26 05:43:00;;;;;;;27.55;20.20;;;10.20;99.90;;;;;;5101259;28;20120;-58
2022/10/26 05:45:27;;;;;;;28.50;18.52;;;10.60;99.90;;;;;;5093507;28;20089;-57
2022/10/26 05:47:53;;;;;;;28.40;18.15;;;;;;;;;;5101042;28;20063;-58
2022/10/26 05:50:18;;;;;;;27.98;18.83;;;10.70;99.90;;;;;;5099814;28;20036;-57
2022/10/26 05:52:46;;;;;;;28.70;17.15;;;10.60;99.90;;;;;;5092952;28;20447;-57
2022/10/26 05:55:14;;;;;;;31.02;18.00;;;10.90;99.90;;;;;;5101146;28;20055;-57
2022/10/26 05:57:40;;;;;;;26.10;16.80;;;;;;;;;;5111550;28;20040;-57
2022/10/26 06:00:27;;;;;;;26.63;17.85;;;;;;;;;;5105407;28;20498;-58
2022/10/26 06:02:53;;;;;;;22.58;16.20;;;;;;;;;;5104760;28;20528;-57
2022/10/26 06:05:23;;;;;;;22.58;16.55;;;10.70;99.90;;;;;;5108218;28;20035;-57
2022/10/26 06:07:49;;;;;;;26.35;17.17;;;10.90;99.90;;;;;;5095490;28;20115;-57
2022/10/26 06:10:15;;;;;;;27.88;16.40;;;10.60;99.90;;;;;;5096982;28;20036;-57
2022/10/26 06:12:41;;;;;;;27.58;16.42;;;;;;;;;;5093514;28;20047;-60
2022/10/26 06:15:12;;;;;;;27.38;17.40;;;;;;;;;;5092829;28;20032;-58
2022/10/26 06:17:56;;;;;;;25.33;16.77;;;;;;;;;;5087833;28;20485;-57
2022/10/26 06:20:31;;;;;;;30.85;16.75;;;10.80;99.90;;;;;;5089160;28;20465;-57
2022/10/26 06:23:03;;;;;;;28.67;16.60;;;;;;;;;;5075637;28;20044;-57
2022/10/26 06:25:35;;;;;;;25.73;16.65;;;10.70;99.90;;;;;;5100669;28;20047;-57
2022/10/26 06:28:15;;;;;;;25.67;16.40;;;10.60;99.90;;;;;;5104101;28;20068;-57
2022/10/26 06:30:42;;;;;;;25.52;16.33;;;10.60;99.90;;;;;;5092371;28;20039;-57
2022/10/26 06:33:10;;;;;;;27.52;17.30;;;;;;;;;;5091486;28;20085;-57
2022/10/26 06:35:56;;;;;;;23.45;15.30;;;;;;;;;;5074016;28;20105;-57
2022/10/26 06:38:26;;;;;;;23.17;15.48;;;10.50;99.90;;;;;;5077554;28;20383;-57
2022/10/26 06:40:55;;;;;;;22.25;16.65;;;10.50;99.90;;;;;;5092215;28;20093;-57
2022/10/26 06:43:26;;;;;;;26.08;17.33;;;10.30;99.90;;;;;;5092061;28;20664;-58
2022/10/26 06:46:27;;;;;;;26.50;17.90;;;10.40;99.90;;;;;;5091769;28;20444;-57
2022/10/26 06:49:07;;;;;;;24.85;17.33;;;;;;;;;;5099529;28;20044;-57
2022/10/26 06:51:41;;;;;;;29.35;17.65;;;10.30;99.90;;;;;;5073384;28;20123;-57
2022/10/26 06:54:27;;;;;;;28.45;18.00;;;;;;;;;;5104019;28;20023;-57
2022/10/26 06:56:53;;;;;;;25.75;16.08;;;;;;;;;;5084956;28;20094;-56
2022/10/26 06:59:28;;;;;;;24.63;16.27;;;;;;;;;;5090192;28;20516;-57
2022/10/26 07:01:54;;;;;;;23.30;15.82;;;10.30;99.90;;;;;;5091406;28;20519;-57
2022/10/26 07:04:19;;;;;;;23.23;16.65;;;10.60;99.90;;;;;;5091085;28;20115;-57
2022/10/26 07:06:45;;;;;;;22.98;15.32;;;;;;;;;;5091267;28;20043;-57
2022/10/26 07:09:11;;;;;;;23.98;15.63;;;;;;;;;;5091119;28;20066;-57
2022/10/26 07:11:40;;;;;;;25.92;15.55;;;;;;;;;;5091293;28;20036;-57
2022/10/26 07:14:05;;;;;;;22.58;14.68;;;10.80;99.90;;;;;;5091056;28;20516;-55
2022/10/26 07:16:31;;;;;;;21.70;14.43;;;10.90;99.90;;;;;;5091323;28;20040;-57
2022/10/26 07:18:57;;;;;;;24.40;15.07;;;11.00;99.90;;;;;;5072441;28;20047;-57
2022/10/26 07:21:22;;;;;;;23.92;14.95;;;11.10;99.90;;;;;;5091581;28;20107;-57
2022/10/26 07:23:48;;;;;;;22.05;14.07;;;11.00;99.90;;;;;;5073137;28;20056;-57
2022/10/26 07:26:13;;;;;;;20.50;13.23;;;10.90;99.90;;;;;;5090007;28;20039;-57
2022/10/26 07:28:39;;;;;;;18.92;13.15;;;;;;;;;;5090350;28;20123;-57
2022/10/26 07:31:05;;;;;;;21.23;12.30;;;11.30;99.90;;;;;;5090608;28;20032;-57
2022/10/26 07:33:31;;;;;;;20.02;13.45;;;11.50;99.90;;;;;;5090438;28;20086;-57
2022/10/26 07:35:58;;;;;;;18.10;12.18;;;;;;;;;;5089732;28;20106;-57
2022/10/26 07:38:24;;;;;;;21.05;12.73;;;11.50;99.90;;;;;;5096992;28;20153;-58
2022/10/26 07:40:53;;;;;;;17.20;11.77;;;11.50;99.90;;;;;;5071343;28;20082;-57
2022/10/26 07:43:21;;;;;;;19.08;12.50;;;11.80;99.90;;;;;;5090716;28;20036;-57
2022/10/26 07:45:50;;;;;;;20.38;12.80;;;11.70;99.90;;;;;;5072384;28;20451;-58
2022/10/26 07:48:16;;;;;;;17.25;11.43;;;11.60;99.90;;;;;;5089954;28;20050;-57
2022/10/26 07:50:41;;;;;;;21.17;12.63;;;11.80;99.90;;;;;;5090469;28;20036;-58
2022/10/26 07:53:07;;;;;;;21.65;12.60;;;;;;;;;;5090494;28;20486;-57
2022/10/26 07:55:33;;;;;;;18.40;12.90;;;11.80;99.90;;;;;;5083766;28;20051;-56
2022/10/26 07:57:58;;;;;;;17.05;12.00;;;11.90;99.90;;;;;;5085076;28;20040;-57
2022/10/26 08:00:24;;;;;;;18.67;11.70;;;11.10;99.90;;;;;;5102070;28;20052;-57
2022/10/26 08:02:50;;;;;;;19.42;11.95;;;12.10;99.90;;;;;;5092718;28;20039;-58
2022/10/26 08:05:17;;;;;;;15.00;11.48;;;;;;;;;;5093706;28;20040;-57
2022/10/26 08:07:43;;;;;;;17.95;10.90;;;11.60;99.90;;;;;;5089524;28;20047;-58
2022/10/26 08:10:09;;;;;;;20.23;10.90;;;11.90;99.90;;;;;;5090257;28;20427;-58
2022/10/26 08:12:35;;;;;;;14.50;10.38;;;12.50;99.90;;;;;;5090583;28;20048;-58
2022/10/26 08:15:01;;;;;;;20.63;10.95;;;12.40;99.90;;;;;;5090342;28;20046;-58
2022/10/26 08:17:28;;;;;;;17.25;10.02;;;12.00;99.90;;;;;;5083686;28;20127;-58
2022/10/26 08:19:54;;;;;;;13.13;9.23;;;12.10;99.90;;;;;;5082484;28;20032;-58
2022/10/26 08:22:19;;;;;;;15.07;9.77;;;12.40;99.90;;;;;;5089980;28;20462;-59
2022/10/26 08:24:45;;;;;;;16.35;10.60;;;12.30;99.90;;;;;;5089746;28;20047;-58
2022/10/26 08:27:13;;;;;;;14.25;9.25;;;;;;;;;;5089698;28;20152;-59
2022/10/26 08:29:39;;;;;;;17.55;10.27;;;12.50;99.90;;;;;;5096610;28;20054;-58
2022/10/26 08:32:05;;;;;;;15.27;9.45;;;12.40;99.90;;;;;;5072137;28;20077;-58
2022/10/26 08:34:30;;;;;;;14.88;8.70;;;12.30;99.90;;;;;;5089771;28;20032;-58
2022/10/26 08:36:56;;;;;;;15.63;9.57;;;;;;;;;;5088788;28;20077;-57
2022/10/26 08:39:22;;;;;;;12.50;8.75;;;12.60;99.90;;;;;;5071846;28;20059;-58
2022/10/26 08:41:54;;;;;;;15.82;8.93;;;12.60;99.90;;;;;;5090267;28;20058;-58
2022/10/26 08:44:25;;;;;;;13.90;8.10;;;;;;;;;;5073504;28;20224;-58
2022/10/26 08:47:14;;;;;;;13.63;9.35;;;12.50;99.90;;;;;;5093789;28;20067;-58
2022/10/26 08:49:44;;;;;;;16.60;8.10;;;12.90;99.90;;;;;;5092274;28;20044;-57
2022/10/26 08:52:12;;;;;;;11.35;7.85;;;;;;;;;;5093279;28;20036;-58
2022/10/26 08:54:42;;;;;;;13.40;7.70;;;13.00;99.90;;;;;;5093913;28;20040;-57
2022/10/26 08:57:14;;;;;;;12.10;7.57;;;;;;;;;;5093339;28;20032;-58
2022/10/26 08:59:46;;;;;;;13.52;7.95;;;;;;;;;;5095365;28;20516;-56
2022/10/26 09:02:14;;;;;;;11.70;7.40;;;13.60;99.90;;;;;;5095119;28;20043;-57
2022/10/26 09:04:40;;;;;;;12.77;7.03;;;13.00;99.90;;;;;;5108873;28;20508;-57
2022/10/26 09:07:25;;;;;;;10.80;6.38;;;;;;;;;;5084957;28;20129;-58
2022/10/26 09:10:06;;;;;;;14.55;7.28;;;13.70;99.90;;;;;;5093519;28;20133;-56
2022/10/26 09:12:54;;;;;;;12.13;6.72;;;13.80;99.90;;;;;;5090728;28;20040;-56
2022/10/26 09:15:40;;;;;;;12.98;6.78;;;;;;;;;;5075276;28;20486;-57
2022/10/26 09:18:50;;;;;;;11.98;5.72;;;14.00;99.90;;;;;;5075180;28;20036;-57
2022/10/26 09:21:39;;;;;;;10.05;5.28;;;14.20;99.90;;;;;;5067303;28;20078;-58
2022/10/26 09:24:22;;;;;;;12.55;5.40;;;13.70;99.90;;;;;;5060438;28;20048;-56
2022/10/26 09:26:53;;;;;;;10.40;5.20;;;;;;;;;;5093069;28;20051;-58
2022/10/26 09:29:21;;;;;;;10.43;4.65;;;;;;;;;;5092849;28;20043;-57
2022/10/26 09:31:49;;;;;;;9.75;4.97;;;14.50;99.90;;;;;;5093577;28;20066;-57
2022/10/26 09:34:45;;;;;;;10.65;6.05;;;14.60;99.90;;;;;;5093304;28;20089;-57
2022/10/26 09:37:14;;;;;;;;;;;15.00;99.90;;;;;;5093944;28;20040;-58
2022/10/26 09:40:02;;;;;;;11.52;4.75;;;15.20;99.90;;;;;;5106484;22;19923;-62
2022/10/26 09:42:39;;;;;;;13.30;6.00;;;15.10;99.90;;;;;;5061446;28;20425;-61
2022/10/26 09:45:33;;;;;;;8.50;4.97;;;14.70;99.90;;;;;;5065289;28;20036;-58
2022/10/26 09:48:11;;;;;;;8.95;5.05;;;15.00;99.90;;;;;;5056943;28;20049;-60
2022/10/26 09:50:41;;;;;;;10.80;4.72;;;14.90;99.90;;;;;;5069579;28;20502;-59
2022/10/26 09:53:06;;;;;;;9.13;4.78;;;15.00;99.90;;;;;;5062700;28;20041;-60
2022/10/26 09:55:38;;;;;;;11.07;5.00;;;15.40;99.90;;;;;;5060211;28;20391;-58
2022/10/26 09:58:09;;;;;;;9.20;4.90;;;15.50;99.90;;;;;;5059468;28;20452;-58
2022/10/26 10:00:37;;;;;;;9.38;4.85;;;;;;;;;;5059983;28;20040;-63
2022/10/26 10:03:23;;;;;;;7.50;4.60;;;15.50;99.90;;;;;;5059875;28;20097;-62
2022/10/26 10:05:49;;;;;;;8.20;4.40;;;15.70;99.90;;;;;;5045735;28;20048;-62
2022/10/26 10:08:16;;;;;;;9.20;4.65;;;15.70;99.90;;;;;;5065995;28;20116;-63
2022/10/26 10:11:08;;;;;;;11.05;4.70;;;16.00;99.90;;;;;;5061352;28;20567;-64
2022/10/26 10:13:36;;;;;;;8.65;4.65;;;;;;;;;;5063898;28;20387;-62
2022/10/26 10:16:10;;;;;;;9.25;4.25;;;16.50;99.90;;;;;;5064638;28;20039;-63
2022/10/26 10:18:38;;;;;;;9.98;4.78;;;15.90;99.90;;;;;;5066537;28;20599;-63
2022/10/26 10:21:05;;;;;;;11.50;4.50;;;15.50;99.90;;;;;;5064162;28;20490;-63
2022/10/26 10:23:36;;;;;;;8.52;4.05;;;16.20;99.90;;;;;;5059864;28;20555;-62
2022/10/26 10:26:06;;;;;;;8.52;3.63;;;16.10;99.90;;;;;;5059346;28;20041;-63
2022/10/26 10:28:33;;;;;;;7.18;4.10;;;15.80;99.90;;;;;;5066080;28;20115;-63
2022/10/26 10:31:04;;;;;;;9.00;4.32;;;16.60;99.90;;;;;;5061817;28;20037;-62
2022/10/26 10:33:33;;;;;;;7.78;4.22;;;16.80;99.90;;;;;;5065884;28;20530;-65
2022/10/26 10:36:00;;;;;;;8.20;3.78;;;16.60;99.90;;;;;;5059342;28;20109;-62
2022/10/26 10:38:26;;;;;;;8.65;4.07;;;16.60;99.90;;;;;;5060372;28;20063;-66
2022/10/26 10:40:58;;;;;;;8.85;3.60;;;15.80;99.90;;;;;;5061228;28;20687;-63
2022/10/26 10:43:24;;;;;;;9.95;4.20;;;16.70;99.90;;;;;;5067460;28;20040;-63
2022/10/26 10:45:53;;;;;;;8.65;4.15;;;16.50;99.90;;;;;;5062465;28;20072;-61
2022/10/26 10:48:26;;;;;;;8.60;3.75;;;16.80;99.90;;;;;;5059771;28;20371;-61
2022/10/26 10:51:00;;;;;;;9.32;4.13;;;17.00;99.90;;;;;;5060867;28;20086;-61
2022/10/26 10:53:37;;;;;;;7.72;3.83;;;16.60;99.90;;;;;;5060567;28;20124;-62
2022/10/26 10:56:30;;;;;;;9.27;4.25;;;16.50;99.90;;;;;;5049091;28;20113;-61
2022/10/26 10:59:26;;;;;;;8.75;3.58;;;16.20;99.90;;;;;;5060260;28;20033;-61
2022/10/26 11:01:59;;;;;;;6.75;3.28;;;16.90;99.90;;;;;;5055056;28;20040;-61
2022/10/26 11:04:51;;;;;;;9.43;3.60;;;16.30;99.90;;;;;;5046927;28;20116;-61
2022/10/26 11:07:19;;;;;;;11.48;3.45;;;17.00;99.90;;;;;;5057949;28;20388;-61
2022/10/26 11:09:48;;;;;;;11.38;3.83;;;17.40;99.90;;;;;;5069411;28;20105;-62
2022/10/26 11:12:22;;;;;;;7.53;3.72;;;17.00;99.90;;;;;;5061768;28;20521;-61
2022/10/26 11:14:58;;;;;;;8.95;3.95;;;17.20;99.90;;;;;;5066806;28;20418;-61
2022/10/26 11:17:43;;;;;;;10.13;3.78;;;16.90;99.90;;;;;;5062414;28;20112;-61
2022/10/26 11:20:17;;;;;;;6.78;3.47;;;17.10;99.90;;;;;;5040083;28;20456;-61
2022/10/26 11:22:46;;;;;;;8.98;3.20;;;;;;;;;;5057399;28;20045;-61
2022/10/26 11:25:18;;;;;;;7.65;3.33;;;17.10;99.90;;;;;;5058877;28;20039;-63
2022/10/26 11:27:55;;;;;;;11.55;4.57;;;16.80;99.90;;;;;;5058876;28;20045;-61
2022/10/26 11:30:24;;;;;;;21.02;4.47;;;17.00;99.90;;;;;;5059884;28;20055;-61
2022/10/26 11:32:52;;;;;;;9.38;3.75;;;17.10;99.90;;;;;;5059727;28;20028;-61
2022/10/26 11:35:25;;;;;;;8.27;3.95;;;17.20;99.90;;;;;;5054067;28;20033;-60
2022/10/26 11:37:55;;;;;;;7.15;3.20;;;17.40;99.90;;;;;;5057767;28;20062;-61
2022/10/26 11:40:23;;;;;;;11.40;4.10;;;17.60;99.90;;;;;;5037062;28;20506;-61
2022/10/26 11:43:00;;;;;;;7.40;3.53;;;17.60;99.90;;;;;;5062737;28;20040;-63
2022/10/26 11:45:34;;;;;;;7.18;3.67;;;17.70;99.90;;;;;;5062601;28;20572;-61
2022/10/26 11:48:16;;;;;;;8.18;3.90;;;18.10;99.90;;;;;;5063132;28;20078;-61
2022/10/26 11:50:46;;;;;;;10.63;4.25;;;17.90;99.90;;;;;;5044621;28;20043;-61
2022/10/26 11:53:15;;;;;;;11.63;5.38;;;17.80;99.90;;;;;;5051358;28;20041;-61
2022/10/26 11:55:41;;;;;;;7.07;4.35;;;18.40;99.90;;;;;;5061411;28;20380;-61
2022/10/26 11:58:10;;;;;;;8.02;4.47;;;17.80;99.90;;;;;;5062158;28;20039;-61
2022/10/26 12:00:48;;;;;;;8.63;3.72;;;17.70;99.90;;;;;;5049710;28;20064;-61
2022/10/26 12:03:26;;;;;;;9.10;3.80;;;17.40;99.90;;;;;;5055942;28;20110;-60
2022/10/26 12:05:53;;;;;;;7.03;3.92;;;17.40;99.90;;;;;;5054092;28;20177;-61
2022/10/26 12:08:32;;;;;;;9.27;4.10;;;17.30;99.90;;;;;;5055287;28;20037;-61
2022/10/26 12:11:04;;;;;;;9.40;3.92;;;17.80;99.90;;;;;;5047395;28;20033;-63
2022/10/26 12:13:37;;;;;;;9.20;4.03;;;17.80;99.90;;;;;;5046166;28;20410;-62
2022/10/26 12:16:12;;;;;;;11.10;4.30;;;19.30;99.90;;;;;;5038398;28;20120;-61
2022/10/26 12:18:51;;;;;;;11.02;4.40;;;19.10;99.90;;;;;;5061677;28;20057;-61
2022/10/26 12:21:17;;;;;;;8.70;4.03;;;19.50;1.00;;;;;;5046082;28;20044;-61
2022/10/26 12:23:58;;;;;;;7.25;3.60;;;20.80;1.00;;;;;;5058835;28;20457;-61
2022/10/26 12:26:23;;;;;;;8.88;3.55;;;22.00;1.00;;;;;;5040229;28;20036;-62
2022/10/26 12:29:13;;;;;;;7.75;3.72;;;22.80;1.00;;;;;;5058365;28;20040;-62
2022/10/26 12:31:38;;;;;;;8.70;3.88;;;23.30;99.90;;;;;;5050995;28;20040;-61
2022/10/26 12:34:36;;;;;;;8.27;4.03;;;22.60;99.90;;;;;;5043233;28;20042;-61
2022/10/26 12:37:03;;;;;;;11.18;3.45;;;20.90;99.90;;;;;;5030511;28;20084;-62
2022/10/26 12:39:28;;;;;;;7.90;4.05;;;22.10;1.00;;;;;;5056190;28;20044;-62
2022/10/26 12:42:18;;;;;;;9.80;4.18;;;22.60;99.90;;;;;;5063511;28;20102;-64
2022/10/26 12:44:47;;;;;;;8.77;3.95;;;21.40;99.90;;;;;;5042347;28;20084;-62
2022/10/26 12:47:28;;;;;;;11.60;4.32;;;20.80;1.00;;;;;;5043454;28;20121;-63
2022/10/26 12:50:05;;;;;;;8.10;4.38;;;23.90;99.90;;;;;;5067783;28;20499;-62
2022/10/26 12:52:47;;;;;;;9.88;4.40;;;23.00;99.90;;;;;;5064679;28;20040;-63
2022/10/26 12:55:37;;;;;;;16.75;4.57;;;22.60;99.90;;;;;;5053642;28;20053;-64
2022/10/26 12:58:27;;;;;;;7.47;4.07;;;22.20;99.90;;;;;;5051761;28;20036;-62
2022/10/26 13:00:59;;;;;;;11.73;4.47;;;21.40;99.90;;;;;;5048772;28;20040;-62
2022/10/26 13:03:24;;;;;;;8.60;4.03;;;22.50;99.90;;;;;;5053686;28;20040;-62
2022/10/26 13:06:25;;;;;;;8.10;4.45;;;21.80;99.90;;;;;;5061315;28;20036;-65
2022/10/26 13:08:53;;;;;;;9.07;3.90;;;22.50;99.90;;;;;;5036960;28;20048;-62
2022/10/26 13:11:34;;;;;;;10.77;4.40;;;21.10;99.90;;;;;;5055103;28;20116;-62
2022/10/26 13:14:03;;;;;;;8.90;4.07;;;20.40;1.00;;;;;;5061352;28;20040;-61
2022/10/26 13:16:29;;;;;;;8.93;4.63;;;20.10;1.00;;;;;;5067141;28;20063;-61
2022/10/26 13:18:56;;;;;;;9.82;4.53;;;19.90;1.00;;;;;;5050342;28;20094;-65
2022/10/26 13:21:24;;;;;;;8.85;4.55;;;18.40;1.00;;;;;;5057557;28;20502;-61
2022/10/26 13:23:53;;;;;;;10.30;4.72;;;;;;;;;;5032192;28;20392;-61
2022/10/26 13:26:21;;;;;;;12.20;5.07;;;19.10;1.00;;;;;;5038672;28;20124;-61
2022/10/26 13:28:59;;;;;;;10.52;5.00;;;17.90;1.00;;;;;;5056553;28;20045;-61
2022/10/26 13:31:27;;;;;;;9.68;5.10;;;18.10;1.00;;;;;;5061445;28;20112;-61
2022/10/26 13:34:02;;;;;;;9.55;5.03;;;18.90;1.00;;;;;;5061826;28;20047;-62